Strona główna
METAR-TAF:

METAR-TAF

Lotnisko :

Port lotniczy Londyn-Southend

Londyn-Southend, Anglia

Szerokość geograficzna: 51-34N, Długość geograficzna: 000-42E, wysokość: 15 m

Aktualna obserwacja pogody

Raport powstał 14 minut temu, godzina 16:50 UTC
Wiatr 6 kt od zachodnio-północny zachód, zmienny między zachód i północ
Temperatura 23°C
Wilgotność 44%
Ciśnienie 1024 hPa
Widzialność 10 km lub więcej
Brak chmur poniżej 1500 m i brak chmur cumulonimbus

METAR: EGMC 121650Z 30006KT 260V350 CAVOK 23/10 Q1024

czas: 18:04 (17:04 UTC)

Prognoza

Raport powstał 3 godziny i 4 minut temu, godzina 14:00 UTC
Prognoza ważna od 12 godzina 15 UTC do 12 godzina 24 UTC
Wiatr 8 kt od północno-północny wschód
Widzialność 10 km lub więcej
Rozproszone chmury na wysokości 4500 ft

TAF: EGMC 121400Z 1215/1224 03008KT 9999 SCT045

Obserwacja i prognoza pogody dla ponad 4000 lotnisk (raport METAR i TAF).

Dostępne stacje oznaczono żółtymi i czerwonymi punktami na mapie.

Najedź kursorem aby zobaczyć nazwę stacji.

Kliknij aby zobaczyć obserwacje i prognozy pogody.

Aby zmienić mapę: kliknij na zielony przycisk z czarnym krzyżykiem, aby powiększyć; na zielony przycisk z myślnikiem, aby pomniejszyć; na zielone strzałki, aby przejść do map sąsiednich.


METAR-TAF: